Time;durP1;ratioP1;P1;durP2;ratioP2;P2;SDS_P1;SDS_P2;PMS_P1;PMS_P2;Temp;Humidity;BMP_temperature;BMP_pressure;BME280_temperature;BME280_humidity;BME280_pressure;Samples;Min_cycle;Max_cycle;Signal;HPM_P1;HPM_P2
2024/01/14 00:01:00;;;;;;;;;;;;;;;;;;5034866;28;19910;-22
2024/01/14 00:03:26;;;;;;;;;;;;;;;;;;5034466;28;20280;-22
2024/01/14 00:05:52;;;;;;;;;;;;;;;;;;5033868;28;19909;-22
2024/01/14 00:08:18;;;;;;;;;;;;;;;;;;5034913;28;19912;-22
2024/01/14 00:10:44;;;;;;;;;;;;;;;;;;5034684;28;20260;-28
2024/01/14 00:13:10;;;;;;;;;;;;;;;;;;5034545;28;19925;-29
2024/01/14 00:15:37;;;;;;;;;;;;;;;;;;5033534;28;19917;-23
2024/01/14 00:18:03;;;;;;;;;;;;;;;;;;5033616;28;19909;-25
2024/01/14 00:20:29;;;;;;;;;;;;;;;;;;5034554;28;19964;-22
2024/01/14 00:22:55;;;;;;;;;;;;;;;;;;5034650;28;19913;-25
2024/01/14 00:25:21;;;;;;;;;;;;;;;;;;5034503;28;19932;-24
2024/01/14 00:27:47;;;;;;;;;;;;;;;;;;5034828;28;19920;-23
2024/01/14 00:30:13;;;;;;;;;;;;;;;;;;5034493;28;20257;-25
2024/01/14 00:32:39;;;;;;;;;;;;;;;;;;5034499;28;20279;-26
2024/01/14 00:35:05;;;;;;;;;;;;;;;;;;5034766;28;20287;-22
2024/01/14 00:37:31;;;;;;;;;;;;;;;;;;5034463;28;20051;-24
2024/01/14 00:39:57;;;;;;;;;;;;;;;;;;5034376;28;20355;-23
2024/01/14 00:42:23;;;;;;;;;;;;;;;;;;5034260;28;20379;-22
2024/01/14 00:44:49;;;;;;;;;;;;;;;;;;5034287;28;20271;-22
2024/01/14 00:47:15;;;;;;;;;;;;;;;;;;5034218;28;19971;-22
2024/01/14 00:49:41;;;;;;;;;;;;;;;;;;5033199;28;19916;-22
2024/01/14 00:52:07;;;;;;;;;;;;;;;;;;5034428;28;19947;-20
2024/01/14 00:54:33;;;;;;;;;;;;;;;;;;5034292;28;20344;-21
2024/01/14 00:56:59;;;;;;;;;;;;;;;;;;5034448;28;19924;-22
2024/01/14 00:59:25;;;;;;;;;;;;;;;;;;5034272;28;20371;-21
2024/01/14 01:01:51;;;;;;;;;;;;;;;;;;5034125;28;19959;-21
2024/01/14 01:04:17;;;;;;;;;;;;;;;;;;5034084;28;20355;-24
2024/01/14 01:06:44;;;;;;;;;;;;;;;;;;5034398;28;19920;-24
2024/01/14 01:09:10;;;;;;;;;;;;;;;;;;5034158;28;20003;-26
2024/01/14 01:11:36;;;;;;;;;;;;;;;;;;5034403;28;19913;-23
2024/01/14 01:14:03;;;;;;;;;;;;;;;;;;5033090;28;19917;-22
2024/01/14 01:16:29;;;;;;;;;;;;;;;;;;5034011;28;19964;-27
2024/01/14 01:18:55;;;;;;;;;;;;;;;;;;5037101;28;19917;-24
2024/01/14 01:21:22;;;;;;;;;;;;;;;;;;5037953;28;19916;-23
2024/01/14 01:23:48;;;;;;;;;;;;;;;;;;5037578;28;19909;-23
2024/01/14 01:26:14;;;;;;;;;;;;;;;;;;5037641;28;19967;-24
2024/01/14 01:28:40;;;;;;;;;;;;;;;;;;5037546;28;19909;-22
2024/01/14 01:31:06;;;;;;;;;;;;;;;;;;5037511;28;19920;-22
2024/01/14 01:33:32;;;;;;;;;;;;;;;;;;5037406;28;19967;-23
2024/01/14 01:35:58;;;;;;;;;;;;;;;;;;5037313;28;19913;-21
2024/01/14 01:38:23;;;;;;;;;;;;;;;;;;5037295;28;19909;-28
2024/01/14 01:40:49;;;;;;;;;;;;;;;;;;5037268;28;20368;-24
2024/01/14 01:43:15;;;;;;;;;;;;;;;;;;5037136;28;19909;-24
2024/01/14 01:45:42;;;;;;;;;;;;;;;;;;5037445;28;20055;-25
2024/01/14 01:48:08;;;;;;;;;;;;;;;;;;5037449;28;20017;-25
2024/01/14 01:50:33;;;;;;;;;;;;;;;;;;5036113;28;19909;-25
2024/01/14 01:53:00;;;;;;;;;;;;;;;;;;5037226;28;20363;-22
2024/01/14 01:55:26;;;;;;;;;;;;;;;;;;5037267;28;19913;-26
2024/01/14 01:57:52;;;;;;;;;;;;;;;;;;5036010;28;20081;-25
2024/01/14 02:00:18;;;;;;;;;;;;;;;;;;5036959;28;19909;-24
2024/01/14 02:02:44;;;;;;;;;;;;;;;;;;5036997;28;19928;-27
2024/01/14 02:05:10;;;;;;;;;;;;;;;;;;5037051;28;20310;-22
2024/01/14 02:07:36;;;;;;;;;;;;;;;;;;5036053;28;19909;-23
2024/01/14 02:10:02;;;;;;;;;;;;;;;;;;5037205;28;20288;-23
2024/01/14 02:12:28;;;;;;;;;;;;;;;;;;5036753;28;19909;-29
2024/01/14 02:14:54;;;;;;;;;;;;;;;;;;5036740;28;19916;-22
2024/01/14 02:17:21;;;;;;;;;;;;;;;;;;5036518;28;20302;-25
2024/01/14 02:19:47;;;;;;;;;;;;;;;;;;5036660;28;19913;-25
2024/01/14 02:22:13;;;;;;;;;;;;;;;;;;5036489;28;19920;-25
2024/01/14 02:24:39;;;;;;;;;;;;;;;;;;5036455;28;20344;-26
2024/01/14 02:27:05;;;;;;;;;;;;;;;;;;5036710;28;19964;-23
2024/01/14 02:29:31;;;;;;;;;;;;;;;;;;5035716;28;19920;-27
2024/01/14 02:31:57;;;;;;;;;;;;;;;;;;5036252;28;19910;-26
2024/01/14 02:34:23;;;;;;;;;;;;;;;;;;5036537;28;20355;-25
2024/01/14 02:36:49;;;;;;;;;;;;;;;;;;5036494;28;20256;-29
2024/01/14 02:39:18;;;;;;;;;;;;;;;;;;5036461;28;19909;-26
2024/01/14 02:41:45;;;;;;;;;;;;;;;;;;5036152;28;19931;-31
2024/01/14 02:44:11;;;;;;;;;;;;;;;;;;5035984;28;20396;-25
2024/01/14 02:46:37;;;;;;;;;;;;;;;;;;5035987;28;19992;-22
2024/01/14 02:49:03;;;;;;;;;;;;;;;;;;5036179;28;19955;-25
2024/01/14 02:51:28;;;;;;;;;;;;;;;;;;5036132;28;19909;-25
2024/01/14 02:53:54;;;;;;;;;;;;;;;;;;5035882;28;19909;-26
2024/01/14 02:56:20;;;;;;;;;;;;;;;;;;5035749;28;19913;-23
2024/01/14 02:58:46;;;;;;;;;;;;;;;;;;5036481;28;19924;-26
2024/01/14 03:01:12;;;;;;;;;;;;;;;;;;5035718;28;19916;-28
2024/01/14 03:03:38;;;;;;;;;;;;;;;;;;5035458;28;20003;-25
2024/01/14 03:06:04;;;;;;;;;;;;;;;;;;5035906;28;20327;-25
2024/01/14 03:08:30;;;;;;;;;;;;;;;;;;5036145;28;19920;-22
2024/01/14 03:10:56;;;;;;;;;;;;;;;;;;5036107;28;19921;-22
2024/01/14 03:13:22;;;;;;;;;;;;;;;;;;5035807;28;19909;-23
2024/01/14 03:15:48;;;;;;;;;;;;;;;;;;5035940;28;19948;-26
2024/01/14 03:18:17;;;;;;;;;;;;;;;;;;5035653;28;19976;-26
2024/01/14 03:20:43;;;;;;;;;;;;;;;;;;5035573;28;19976;-24
2024/01/14 03:23:09;;;;;;;;;;;;;;;;;;5035974;28;19909;-24
2024/01/14 03:25:34;;;;;;;;;;;;;;;;;;5035781;28;19955;-25
2024/01/14 03:28:00;;;;;;;;;;;;;;;;;;5035302;28;19909;-24
2024/01/14 03:30:26;;;;;;;;;;;;;;;;;;5035514;28;19917;-24
2024/01/14 03:32:52;;;;;;;;;;;;;;;;;;5035093;28;20352;-22
2024/01/14 03:35:18;;;;;;;;;;;;;;;;;;5036063;28;19980;-25
2024/01/14 03:37:44;;;;;;;;;;;;;;;;;;5035089;28;19916;-28
2024/01/14 03:40:10;;;;;;;;;;;;;;;;;;5034871;28;20272;-22
2024/01/14 03:42:36;;;;;;;;;;;;;;;;;;5035285;28;20008;-24
2024/01/14 03:45:02;;;;;;;;;;;;;;;;;;5034974;28;19919;-26
2024/01/14 03:47:28;;;;;;;;;;;;;;;;;;5035200;28;19910;-26
2024/01/14 03:49:54;;;;;;;;;;;;;;;;;;5034906;28;19909;-25
2024/01/14 03:52:20;;;;;;;;;;;;;;;;;;5035108;28;19920;-23
2024/01/14 03:54:46;;;;;;;;;;;;;;;;;;5035067;28;19913;-23
2024/01/14 03:57:12;;;;;;;;;;;;;;;;;;5034760;28;19978;-24
2024/01/14 03:59:38;;;;;;;;;;;;;;;;;;5033764;28;20000;-26
2024/01/14 04:02:04;;;;;;;;;;;;;;;;;;5034656;28;20374;-26
2024/01/14 04:04:30;;;;;;;;;;;;;;;;;;5034582;28;20253;-23
2024/01/14 04:06:56;;;;;;;;;;;;;;;;;;5034713;28;19921;-25
2024/01/14 04:09:22;;;;;;;;;;;;;;;;;;5034828;28;20413;-23
2024/01/14 04:11:48;;;;;;;;;;;;;;;;;;5034643;28;19909;-24
2024/01/14 04:14:14;;;;;;;;;;;;;;;;;;5034568;28;20293;-26
2024/01/14 04:16:40;;;;;;;;;;;;;;;;;;5034512;28;19917;-23
2024/01/14 04:19:06;;;;;;;;;;;;;;;;;;5033506;28;19963;-26
2024/01/14 04:21:32;;;;;;;;;;;;;;;;;;5034489;28;19909;-22
2024/01/14 04:24:04;;;;;;;;;;;;;;;;;;5034670;28;19909;-22
2024/01/14 04:26:30;;;;;;;;;;;;;;;;;;5034780;28;19920;-22
2024/01/14 04:28:56;;;;;;;;;;;;;;;;;;5034703;28;20332;-23
2024/01/14 04:31:22;;;;;;;;;;;;;;;;;;5034753;28;19952;-22
2024/01/14 04:33:48;;;;;;;;;;;;;;;;;;5034634;28;19909;-23
2024/01/14 04:36:16;;;;;;;;;;;;;;;;;;5034265;28;19913;-23
2024/01/14 04:38:42;;;;;;;;;;;;;;;;;;5034573;28;20253;-22
2024/01/14 04:41:08;;;;;;;;;;;;;;;;;;5034488;28;19997;-24
2024/01/14 04:43:34;;;;;;;;;;;;;;;;;;5034235;28;19909;-27
2024/01/14 04:46:00;;;;;;;;;;;;;;;;;;5034600;28;19919;-25
2024/01/14 04:48:26;;;;;;;;;;;;;;;;;;5034496;28;19917;-26
2024/01/14 04:50:53;;;;;;;;;;;;;;;;;;5034310;28;19909;-22
2024/01/14 04:53:19;;;;;;;;;;;;;;;;;;5036459;28;20000;-22
2024/01/14 04:55:45;;;;;;;;;;;;;;;;;;5038082;28;20319;-25
2024/01/14 04:58:11;;;;;;;;;;;;;;;;;;5038542;28;19913;-23
2024/01/14 05:00:37;;;;;;;;;;;;;;;;;;5038078;28;19928;-22
2024/01/14 05:03:03;;;;;;;;;;;;;;;;;;5037731;28;19921;-27
2024/01/14 05:05:29;;;;;;;;;;;;;;;;;;5037965;28;20268;-23
2024/01/14 05:07:55;;;;;;;;;;;;;;;;;;5037848;28;19916;-21
2024/01/14 05:10:21;;;;;;;;;;;;;;;;;;5037863;28;19909;-24
2024/01/14 05:12:47;;;;;;;;;;;;;;;;;;5037950;28;20131;-22
2024/01/14 05:15:13;;;;;;;;;;;;;;;;;;5037737;28;20336;-24
2024/01/14 05:17:39;;;;;;;;;;;;;;;;;;5037910;28;20358;-26
2024/01/14 05:20:05;;;;;;;;;;;;;;;;;;5037702;28;19909;-24
2024/01/14 05:22:31;;;;;;;;;;;;;;;;;;5037701;28;19967;-24
2024/01/14 05:24:57;;;;;;;;;;;;;;;;;;5037539;28;19913;-24
2024/01/14 05:27:23;;;;;;;;;;;;;;;;;;5037475;28;20000;-25
2024/01/14 05:29:49;;;;;;;;;;;;;;;;;;5037737;28;19916;-26
2024/01/14 05:32:15;;;;;;;;;;;;;;;;;;5037406;28;19909;-25
2024/01/14 05:34:41;;;;;;;;;;;;;;;;;;5037640;28;19913;-25
2024/01/14 05:37:06;;;;;;;;;;;;;;;;;;5037246;28;19939;-25
2024/01/14 05:39:32;;;;;;;;;;;;;;;;;;5037511;28;19909;-24
2024/01/14 05:41:58;;;;;;;;;;;;;;;;;;5037127;28;19916;-26
2024/01/14 05:44:25;;;;;;;;;;;;;;;;;;5037252;28;19920;-24
2024/01/14 05:46:51;;;;;;;;;;;;;;;;;;5037135;28;20324;-25
2024/01/14 05:49:17;;;;;;;;;;;;;;;;;;5037122;28;19917;-26
2024/01/14 05:51:43;;;;;;;;;;;;;;;;;;5037292;28;20016;-25
2024/01/14 05:54:09;;;;;;;;;;;;;;;;;;5036935;28;20386;-22
2024/01/14 05:56:35;;;;;;;;;;;;;;;;;;5036886;28;19935;-21
2024/01/14 05:59:01;;;;;;;;;;;;;;;;;;5036884;28;19909;-26
2024/01/14 06:01:27;;;;;;;;;;;;;;;;;;5036942;28;19913;-26
2024/01/14 06:03:53;;;;;;;;;;;;;;;;;;5036562;28;19995;-25
2024/01/14 06:06:19;;;;;;;;;;;;;;;;;;5036999;28;20351;-25
2024/01/14 06:08:45;;;;;;;;;;;;;;;;;;5036705;28;20359;-22
2024/01/14 06:11:12;;;;;;;;;;;;;;;;;;5036970;28;20405;-22
2024/01/14 06:13:38;;;;;;;;;;;;;;;;;;5036594;28;19909;-24
2024/01/14 06:16:04;;;;;;;;;;;;;;;;;;5036633;28;19913;-26
2024/01/14 06:18:30;;;;;;;;;;;;;;;;;;5036769;28;20310;-22
2024/01/14 06:20:59;;;;;;;;;;;;;;;;;;5036601;28;19912;-24
2024/01/14 06:23:25;;;;;;;;;;;;;;;;;;5036437;28;19919;-22
2024/01/14 06:25:51;;;;;;;;;;;;;;;;;;5036513;28;19917;-25
2024/01/14 06:28:17;;;;;;;;;;;;;;;;;;5036435;28;19917;-22
2024/01/14 06:30:43;;;;;;;;;;;;;;;;;;5036382;28;20316;-23
2024/01/14 06:33:09;;;;;;;;;;;;;;;;;;5036342;28;20265;-22
2024/01/14 06:35:35;;;;;;;;;;;;;;;;;;5036201;28;19939;-22
2024/01/14 06:38:01;;;;;;;;;;;;;;;;;;5036462;28;19935;-24
2024/01/14 06:40:27;;;;;;;;;;;;;;;;;;5036190;28;19913;-23
2024/01/14 06:42:53;;;;;;;;;;;;;;;;;;5036049;28;20252;-22
2024/01/14 06:45:19;;;;;;;;;;;;;;;;;;5036040;28;19909;-25
2024/01/14 06:47:45;;;;;;;;;;;;;;;;;;5035045;28;19987;-23
2024/01/14 06:50:11;;;;;;;;;;;;;;;;;;5035962;28;19920;-23
2024/01/14 06:52:37;;;;;;;;;;;;;;;;;;5036005;28;19971;-21
2024/01/14 06:55:06;;;;;;;;;;;;;;;;;;5035974;28;19909;-21
2024/01/14 06:57:32;;;;;;;;;;;;;;;;;;5035853;28;19997;-24
2024/01/14 06:59:58;;;;;;;;;;;;;;;;;;5035841;28;20305;-24
2024/01/14 07:02:24;;;;;;;;;;;;;;;;;;5035742;28;20256;-25
2024/01/14 07:04:49;;;;;;;;;;;;;;;;;;5036029;28;19913;-25
2024/01/14 07:07:16;;;;;;;;;;;;;;;;;;5035664;28;19988;-22
2024/01/14 07:09:42;;;;;;;;;;;;;;;;;;5035560;28;19909;-25
2024/01/14 07:12:08;;;;;;;;;;;;;;;;;;5035495;28;19909;-27
2024/01/14 07:14:34;;;;;;;;;;;;;;;;;;5035437;28;19917;-21
2024/01/14 07:17:00;;;;;;;;;;;;;;;;;;5035235;28;19924;-25
2024/01/14 07:19:26;;;;;;;;;;;;;;;;;;5035671;28;20015;-24
2024/01/14 07:21:52;;;;;;;;;;;;;;;;;;5035319;28;20367;-22
2024/01/14 07:24:18;;;;;;;;;;;;;;;;;;5035353;28;19928;-24
2024/01/14 07:26:44;;;;;;;;;;;;;;;;;;5035319;28;20004;-27
2024/01/14 07:29:10;;;;;;;;;;;;;;;;;;5035223;28;20209;-21
2024/01/14 07:31:35;;;;;;;;;;;;;;;;;;5035552;28;19909;-22
2024/01/14 07:34:01;;;;;;;;;;;;;;;;;;5035206;28;19909;-24
2024/01/14 07:36:27;;;;;;;;;;;;;;;;;;5035343;28;19913;-25
2024/01/14 07:38:53;;;;;;;;;;;;;;;;;;5035257;28;20255;-24
2024/01/14 07:41:19;;;;;;;;;;;;;;;;;;5035192;28;20004;-26
2024/01/14 07:43:45;;;;;;;;;;;;;;;;;;5035331;28;19937;-23
2024/01/14 07:46:11;;;;;;;;;;;;;;;;;;5035280;28;19916;-21
2024/01/14 07:48:37;;;;;;;;;;;;;;;;;;5035056;28;19956;-21
2024/01/14 07:51:03;;;;;;;;;;;;;;;;;;5034892;28;19913;-23
2024/01/14 07:53:29;;;;;;;;;;;;;;;;;;5035060;28;19916;-23
2024/01/14 07:55:55;;;;;;;;;;;;;;;;;;5034889;28;19913;-23
2024/01/14 07:58:21;;;;;;;;;;;;;;;;;;5035074;28;19910;-27
2024/01/14 08:00:47;;;;;;;;;;;;;;;;;;5034571;28;20059;-24
2024/01/14 08:03:13;;;;;;;;;;;;;;;;;;5034502;28;19932;-28
2024/01/14 08:05:39;;;;;;;;;;;;;;;;;;5034672;28;19909;-28
2024/01/14 08:08:05;;;;;;;;;;;;;;;;;;5034647;28;19945;-23
2024/01/14 08:10:31;;;;;;;;;;;;;;;;;;5034928;28;19913;-23
2024/01/14 08:12:57;;;;;;;;;;;;;;;;;;5034616;28;19913;-23
2024/01/14 08:15:23;;;;;;;;;;;;;;;;;;5034636;28;19916;-21
2024/01/14 08:17:49;;;;;;;;;;;;;;;;;;5034468;28;19913;-23
2024/01/14 08:20:15;;;;;;;;;;;;;;;;;;5034564;28;19910;-22
2024/01/14 08:22:41;;;;;;;;;;;;;;;;;;5034616;28;19917;-24
2024/01/14 08:25:10;;;;;;;;;;;;;;;;;;5034804;28;19913;-28
2024/01/14 08:27:36;;;;;;;;;;;;;;;;;;5036029;28;19913;-25
2024/01/14 08:30:03;;;;;;;;;;;;;;;;;;5038617;28;19972;-23
2024/01/14 08:32:30;;;;;;;;;;;;;;;;;;5038930;28;20050;-23
2024/01/14 08:34:56;;;;;;;;;;;;;;;;;;5038584;28;19952;-25
2024/01/14 08:37:21;;;;;;;;;;;;;;;;;;5038526;28;20018;-25
2024/01/14 08:39:48;;;;;;;;;;;;;;;;;;5038772;28;19909;-25
2024/01/14 08:42:14;;;;;;;;;;;;;;;;;;5038479;28;20040;-22
2024/01/14 08:44:40;;;;;;;;;;;;;;;;;;5038440;28;20319;-25
2024/01/14 08:47:06;;;;;;;;;;;;;;;;;;5038332;28;19940;-22
2024/01/14 08:49:32;;;;;;;;;;;;;;;;;;5038540;28;20270;-22
2024/01/14 08:51:59;;;;;;;;;;;;;;;;;;5038176;28;20300;-22
2024/01/14 08:54:25;;;;;;;;;;;;;;;;;;5038205;28;19955;-22
2024/01/14 08:56:51;;;;;;;;;;;;;;;;;;5038330;28;19913;-30
2024/01/14 08:59:17;;;;;;;;;;;;;;;;;;5038153;28;19921;-23
2024/01/14 09:01:43;;;;;;;;;;;;;;;;;;5038095;28;19909;-24
2024/01/14 09:04:09;;;;;;;;;;;;;;;;;;5037790;28;20244;-28
2024/01/14 09:06:35;;;;;;;;;;;;;;;;;;5038174;28;19909;-26
2024/01/14 09:09:01;;;;;;;;;;;;;;;;;;5037928;28;19909;-31
2024/01/14 09:11:27;;;;;;;;;;;;;;;;;;5037779;28;20429;-23
2024/01/14 09:13:53;;;;;;;;;;;;;;;;;;5037666;28;19981;-24
2024/01/14 09:16:19;;;;;;;;;;;;;;;;;;5037619;28;19925;-28
2024/01/14 09:18:45;;;;;;;;;;;;;;;;;;5037678;28;19909;-24
2024/01/14 09:21:11;;;;;;;;;;;;;;;;;;5037916;28;19996;-25
2024/01/14 09:23:37;;;;;;;;;;;;;;;;;;5037621;28;19917;-24
2024/01/14 09:26:03;;;;;;;;;;;;;;;;;;5037595;28;20344;-22
2024/01/14 09:28:29;;;;;;;;;;;;;;;;;;5037640;28;19919;-22
2024/01/14 09:30:55;;;;;;;;;;;;;;;;;;5037643;28;19964;-22
2024/01/14 09:33:21;;;;;;;;;;;;;;;;;;5037612;28;19917;-25
2024/01/14 09:35:47;;;;;;;;;;;;;;;;;;5036500;28;19913;-22
2024/01/14 09:38:13;;;;;;;;;;;;;;;;;;5037278;28;19916;-23
2024/01/14 09:40:39;;;;;;;;;;;;;;;;;;5037354;28;19909;-23
2024/01/14 09:43:05;;;;;;;;;;;;;;;;;;5037511;28;19966;-25
2024/01/14 09:45:31;;;;;;;;;;;;;;;;;;5037558;28;20341;-24
2024/01/14 09:47:57;;;;;;;;;;;;;;;;;;5037253;28;19913;-23
2024/01/14 09:50:23;;;;;;;;;;;;;;;;;;5037170;28;20344;-24
2024/01/14 09:52:49;;;;;;;;;;;;;;;;;;5037373;28;19909;-24
2024/01/14 09:55:15;;;;;;;;;;;;;;;;;;5037075;28;19909;-23
2024/01/14 09:57:41;;;;;;;;;;;;;;;;;;5037022;28;19913;-23
2024/01/14 10:00:07;;;;;;;;;;;;;;;;;;5037112;28;19979;-22
2024/01/14 10:02:33;;;;;;;;;;;;;;;;;;5036946;28;19925;-22
2024/01/14 10:04:59;;;;;;;;;;;;;;;;;;5036988;28;19909;-22
2024/01/14 10:07:25;;;;;;;;;;;;;;;;;;5035986;28;19960;-23
2024/01/14 10:09:52;;;;;;;;;;;;;;;;;;5036883;28;19999;-22
2024/01/14 10:12:18;;;;;;;;;;;;;;;;;;5036817;28;19920;-25
2024/01/14 10:14:44;;;;;;;;;;;;;;;;;;5037061;28;20344;-23
2024/01/14 10:17:10;;;;;;;;;;;;;;;;;;5036839;28;19917;-25
2024/01/14 10:19:37;;;;;;;;;;;;;;;;;;5036697;28;19924;-22
2024/01/14 10:22:03;;;;;;;;;;;;;;;;;;5036608;28;20256;-25
2024/01/14 10:24:29;;;;;;;;;;;;;;;;;;5036832;28;19916;-26
2024/01/14 10:26:55;;;;;;;;;;;;;;;;;;5036512;28;19909;-22
2024/01/14 10:29:21;;;;;;;;;;;;;;;;;;5037131;28;20241;-25
2024/01/14 10:31:47;;;;;;;;;;;;;;;;;;5036828;28;20000;-22
2024/01/14 10:34:14;;;;;;;;;;;;;;;;;;5036845;28;20248;-24
2024/01/14 10:36:40;;;;;;;;;;;;;;;;;;5036209;28;19943;-22
2024/01/14 10:39:10;;;;;;;;;;;;;;;;;;5036204;28;19913;-25
2024/01/14 10:41:36;;;;;;;;;;;;;;;;;;5036187;28;20000;-23
2024/01/14 10:44:02;;;;;;;;;;;;;;;;;;5036136;28;19952;-23
2024/01/14 10:46:28;;;;;;;;;;;;;;;;;;5036177;28;19909;-22
2024/01/14 10:48:54;;;;;;;;;;;;;;;;;;5036162;28;19916;-22
2024/01/14 10:51:20;;;;;;;;;;;;;;;;;;5035283;28;19909;-24
2024/01/14 10:53:46;;;;;;;;;;;;;;;;;;5035926;28;19908;-25
2024/01/14 10:56:12;;;;;;;;;;;;;;;;;;5036083;28;20063;-27
2024/01/14 10:58:38;;;;;;;;;;;;;;;;;;5035952;28;19909;-24
2024/01/14 11:01:04;;;;;;;;;;;;;;;;;;5035830;28;19909;-27
2024/01/14 11:03:30;;;;;;;;;;;;;;;;;;5035600;28;20012;-22
2024/01/14 11:05:56;;;;;;;;;;;;;;;;;;5035725;28;19948;-24
2024/01/14 11:08:22;;;;;;;;;;;;;;;;;;5035670;28;19909;-21
2024/01/14 11:10:49;;;;;;;;;;;;;;;;;;5035927;28;19997;-22
2024/01/14 11:13:15;;;;;;;;;;;;;;;;;;5035513;28;19909;-22
2024/01/14 11:15:41;;;;;;;;;;;;;;;;;;5035776;28;19974;-27
2024/01/14 11:18:07;;;;;;;;;;;;;;;;;;5035580;28;19912;-24
2024/01/14 11:20:33;;;;;;;;;;;;;;;;;;5035750;28;19917;-22
2024/01/14 11:22:59;;;;;;;;;;;;;;;;;;5035369;28;20255;-26
2024/01/14 11:25:25;;;;;;;;;;;;;;;;;;5035480;28;20078;-25
2024/01/14 11:27:53;;;;;;;;;;;;;;;;;;5035664;28;20247;-21
2024/01/14 11:30:19;;;;;;;;;;;;;;;;;;5035529;28;19909;-22
2024/01/14 11:32:45;;;;;;;;;;;;;;;;;;5035451;28;19917;-22
2024/01/14 11:35:11;;;;;;;;;;;;;;;;;;5035558;28;20094;-22
2024/01/14 11:37:37;;;;;;;;;;;;;;;;;;5035141;28;19917;-22
2024/01/14 11:40:05;;;;;;;;;;;;;;;;;;5034337;28;21250;-22
2024/01/14 11:42:32;;;;;;;;;;;;;;;;;;5034966;28;19913;-27
2024/01/14 11:44:58;;;;;;;;;;;;;;;;;;5035100;28;19905;-24
2024/01/14 11:47:24;;;;;;;;;;;;;;;;;;5034960;28;20004;-24
2024/01/14 11:49:50;;;;;;;;;;;;;;;;;;5035188;28;19906;-24
2024/01/14 11:52:16;;;;;;;;;;;;;;;;;;5034833;28;19944;-27
2024/01/14 11:54:42;;;;;;;;;;;;;;;;;;5034867;28;20284;-22
2024/01/14 11:57:07;;;;;;;;;;;;;;;;;;5034735;28;19961;-23
2024/01/14 11:59:34;;;;;;;;;;;;;;;;;;5034806;28;19916;-24
2024/01/14 12:02:00;;;;;;;;;;;;;;;;;;5034633;28;19984;-25
2024/01/14 12:04:26;;;;;;;;;;;;;;;;;;5034701;28;20332;-28
2024/01/14 12:06:52;;;;;;;;;;;;;;;;;;5034777;28;20036;-21
2024/01/14 12:09:18;;;;;;;;;;;;;;;;;;5034695;28;20340;-23
2024/01/14 12:11:44;;;;;;;;;;;;;;;;;;5034658;28;19920;-23
2024/01/14 12:14:10;;;;;;;;;;;;;;;;;;5034550;28;19909;-24
2024/01/14 12:16:36;;;;;;;;;;;;;;;;;;5035310;28;20018;-26
2024/01/14 12:19:02;;;;;;;;;;;;;;;;;;5034551;28;19925;-22
2024/01/14 12:21:28;;;;;;;;;;;;;;;;;;5034592;28;20005;-25
2024/01/14 12:23:54;;;;;;;;;;;;;;;;;;5034718;28;19916;-26
2024/01/14 12:26:20;;;;;;;;;;;;;;;;;;5034507;28;20255;-22
2024/01/14 12:28:46;;;;;;;;;;;;;;;;;;5034539;28;20004;-26
2024/01/14 12:31:12;;;;;;;;;;;;;;;;;;5034746;28;20341;-25
2024/01/14 12:33:38;;;;;;;;;;;;;;;;;;5034404;28;19916;-28
2024/01/14 12:36:04;;;;;;;;;;;;;;;;;;5034437;28;19917;-25
2024/01/14 12:38:30;;;;;;;;;;;;;;;;;;5034444;28;19915;-24
2024/01/14 12:40:56;;;;;;;;;;;;;;;;;;5034650;28;19909;-23
2024/01/14 12:43:22;;;;;;;;;;;;;;;;;;5034339;28;19916;-25
2024/01/14 12:45:48;;;;;;;;;;;;;;;;;;5034411;28;19909;-23
2024/01/14 12:48:13;;;;;;;;;;;;;;;;;;5034364;28;20349;-23
2024/01/14 12:50:39;;;;;;;;;;;;;;;;;;5034298;28;20003;-22
2024/01/14 12:53:05;;;;;;;;;;;;;;;;;;5033098;28;19916;-22
2024/01/14 12:55:31;;;;;;;;;;;;;;;;;;5034473;28;19909;-26
2024/01/14 12:57:58;;;;;;;;;;;;;;;;;;5034386;28;20398;-27
2024/01/14 13:00:24;;;;;;;;;;;;;;;;;;5034184;28;19955;-25
2024/01/14 13:02:50;;;;;;;;;;;;;;;;;;5033921;28;20343;-24
2024/01/14 13:05:16;;;;;;;;;;;;;;;;;;5034189;28;19941;-25
2024/01/14 13:07:42;;;;;;;;;;;;;;;;;;5034340;28;19937;-23
2024/01/14 13:10:08;;;;;;;;;;;;;;;;;;5033195;28;20299;-22
2024/01/14 13:12:34;;;;;;;;;;;;;;;;;;5034061;28;20201;-24
2024/01/14 13:15:00;;;;;;;;;;;;;;;;;;5037284;28;19909;-24
2024/01/14 13:17:26;;;;;;;;;;;;;;;;;;5037946;28;19913;-27
2024/01/14 13:19:51;;;;;;;;;;;;;;;;;;5036749;28;19999;-25
2024/01/14 13:22:17;;;;;;;;;;;;;;;;;;5037832;28;20264;-23
2024/01/14 13:24:43;;;;;;;;;;;;;;;;;;5037635;28;19976;-26
2024/01/14 13:27:09;;;;;;;;;;;;;;;;;;5037598;28;19917;-24
2024/01/14 13:29:35;;;;;;;;;;;;;;;;;;5037761;28;20332;-23
2024/01/14 13:32:01;;;;;;;;;;;;;;;;;;5037716;28;19909;-26
2024/01/14 13:34:27;;;;;;;;;;;;;;;;;;5037363;28;19996;-22
2024/01/14 13:36:54;;;;;;;;;;;;;;;;;;5037527;28;19913;-23
2024/01/14 13:39:20;;;;;;;;;;;;;;;;;;5037340;28;19909;-24
2024/01/14 13:41:46;;;;;;;;;;;;;;;;;;5037319;28;19920;-23
2024/01/14 13:44:12;;;;;;;;;;;;;;;;;;5037188;28;19956;-26
2024/01/14 13:46:38;;;;;;;;;;;;;;;;;;5037204;28;19909;-22
2024/01/14 13:49:04;;;;;;;;;;;;;;;;;;5037140;28;19949;-24
2024/01/14 13:51:30;;;;;;;;;;;;;;;;;;5037382;28;19928;-21
2024/01/14 13:53:56;;;;;;;;;;;;;;;;;;5036953;28;19920;-22
2024/01/14 13:56:22;;;;;;;;;;;;;;;;;;5036986;28;19949;-22
2024/01/14 13:58:48;;;;;;;;;;;;;;;;;;5038038;28;19909;-22
2024/01/14 14:01:14;;;;;;;;;;;;;;;;;;5036970;28;19909;-22
2024/01/14 14:03:40;;;;;;;;;;;;;;;;;;5035593;28;19921;-24
2024/01/14 14:06:06;;;;;;;;;;;;;;;;;;5035816;28;19909;-28
2024/01/14 14:08:32;;;;;;;;;;;;;;;;;;5036769;28;20328;-24
2024/01/14 14:10:58;;;;;;;;;;;;;;;;;;5036696;28;20206;-21
2024/01/14 14:13:23;;;;;;;;;;;;;;;;;;5036587;28;19916;-22
2024/01/14 14:15:49;;;;;;;;;;;;;;;;;;5036530;28;19909;-24
2024/01/14 14:18:15;;;;;;;;;;;;;;;;;;5036647;28;19920;-26
2024/01/14 14:20:41;;;;;;;;;;;;;;;;;;5036589;28;19909;-27
2024/01/14 14:23:07;;;;;;;;;;;;;;;;;;5036526;28;19917;-23
2024/01/14 14:25:33;;;;;;;;;;;;;;;;;;5035484;28;19909;-24
2024/01/14 14:27:59;;;;;;;;;;;;;;;;;;5036420;28;20225;-24
2024/01/14 14:30:26;;;;;;;;;;;;;;;;;;5036429;28;19909;-22
2024/01/14 14:32:52;;;;;;;;;;;;;;;;;;5036921;28;20256;-24
2024/01/14 14:35:18;;;;;;;;;;;;;;;;;;5036630;28;19971;-22
2024/01/14 14:37:45;;;;;;;;;;;;;;;;;;5036246;28;19968;-25
2024/01/14 14:40:11;;;;;;;;;;;;;;;;;;5036275;28;19921;-23
2024/01/14 14:42:37;;;;;;;;;;;;;;;;;;5035082;28;19913;-22
2024/01/14 14:45:04;;;;;;;;;;;;;;;;;;5036229;28;20011;-22
2024/01/14 14:47:30;;;;;;;;;;;;;;;;;;5036049;28;19909;-22
2024/01/14 14:49:56;;;;;;;;;;;;;;;;;;5036006;28;19952;-29
2024/01/14 14:52:22;;;;;;;;;;;;;;;;;;5035901;28;19909;-21
2024/01/14 14:54:48;;;;;;;;;;;;;;;;;;5036118;28;19920;-22
2024/01/14 14:57:14;;;;;;;;;;;;;;;;;;5035762;28;19920;-27
2024/01/14 14:59:40;;;;;;;;;;;;;;;;;;5036082;28;20361;-22
2024/01/14 15:02:06;;;;;;;;;;;;;;;;;;5035777;28;19920;-30
2024/01/14 15:04:32;;;;;;;;;;;;;;;;;;5035592;28;19928;-26
2024/01/14 15:06:58;;;;;;;;;;;;;;;;;;5035714;28;19909;-21
2024/01/14 15:09:25;;;;;;;;;;;;;;;;;;5035764;28;19916;-24
2024/01/14 15:11:51;;;;;;;;;;;;;;;;;;5035568;28;19909;-25
2024/01/14 15:14:17;;;;;;;;;;;;;;;;;;5034615;28;20008;-21
2024/01/14 15:16:43;;;;;;;;;;;;;;;;;;5035883;28;19964;-23
2024/01/14 15:19:09;;;;;;;;;;;;;;;;;;5035516;28;19910;-21
2024/01/14 15:21:35;;;;;;;;;;;;;;;;;;5035756;28;19913;-23
2024/01/14 15:24:01;;;;;;;;;;;;;;;;;;5035328;28;19971;-22
2024/01/14 15:26:27;;;;;;;;;;;;;;;;;;5035661;28;19924;-22
2024/01/14 15:28:53;;;;;;;;;;;;;;;;;;5035337;28;20256;-22
2024/01/14 15:31:19;;;;;;;;;;;;;;;;;;5035638;28;20398;-22
2024/01/14 15:33:45;;;;;;;;;;;;;;;;;;5034295;28;19967;-27
2024/01/14 15:36:11;;;;;;;;;;;;;;;;;;5034743;28;19913;-26
2024/01/14 15:38:37;;;;;;;;;;;;;;;;;;5035231;28;19912;-23
2024/01/14 15:41:06;;;;;;;;;;;;;;;;;;5035181;28;19920;-26
2024/01/14 15:43:32;;;;;;;;;;;;;;;;;;5035053;28;19916;-22
2024/01/14 15:45:58;;;;;;;;;;;;;;;;;;5034987;28;19913;-22
2024/01/14 15:48:24;;;;;;;;;;;;;;;;;;5035113;28;19970;-27
2024/01/14 15:50:50;;;;;;;;;;;;;;;;;;5035182;28;19913;-23
2024/01/14 15:53:17;;;;;;;;;;;;;;;;;;5035028;28;19971;-24
2024/01/14 15:55:43;;;;;;;;;;;;;;;;;;5034914;28;19955;-24
2024/01/14 15:58:09;;;;;;;;;;;;;;;;;;5035094;28;19952;-21
2024/01/14 16:00:37;;;;;;;;;;;;;;;;;;5034870;28;19909;-22
2024/01/14 16:03:03;;;;;;;;;;;;;;;;;;5034525;28;20145;-25
2024/01/14 16:05:29;;;;;;;;;;;;;;;;;;5034769;28;19932;-21
2024/01/14 16:07:55;;;;;;;;;;;;;;;;;;5035042;28;19967;-27
2024/01/14 16:10:21;;;;;;;;;;;;;;;;;;5034744;28;20256;-22
2024/01/14 16:12:47;;;;;;;;;;;;;;;;;;5034601;28;20275;-27
2024/01/14 16:15:15;;;;;;;;;;;;;;;;;;5034650;28;19909;-23
2024/01/14 16:17:41;;;;;;;;;;;;;;;;;;5034839;28;19943;-23
2024/01/14 16:20:07;;;;;;;;;;;;;;;;;;5034664;28;19913;-21
2024/01/14 16:22:33;;;;;;;;;;;;;;;;;;5034590;28;20278;-23
2024/01/14 16:24:59;;;;;;;;;;;;;;;;;;5034782;28;19923;-24
2024/01/14 16:27:25;;;;;;;;;;;;;;;;;;5034478;28;19966;-26
2024/01/14 16:29:51;;;;;;;;;;;;;;;;;;5034850;28;19996;-29
2024/01/14 16:32:17;;;;;;;;;;;;;;;;;;5034564;28;19909;-25
2024/01/14 16:34:43;;;;;;;;;;;;;;;;;;5034477;28;19909;-25
2024/01/14 16:37:09;;;;;;;;;;;;;;;;;;5033355;28;19924;-21